Time;durP1;ratioP1;P1;durP2;ratioP2;P2;SDS_P1;SDS_P2;PMS_P1;PMS_P2;Temp;Humidity;BMP_temperature;BMP_pressure;BME280_temperature;BME280_humidity;BME280_pressure;Samples;Min_cycle;Max_cycle;Signal;HPM_P1;HPM_P2
2023/07/13 00:00:42;;;;;;;2.37;1.57;;;21.00;91.80;;;;;;5011751;28;21021;-67
2023/07/13 00:03:09;;;;;;;2.07;1.87;;;21.00;92.40;;;;;;5011201;28;20542;-68
2023/07/13 00:05:36;;;;;;;2.23;2.00;;;20.90;93.30;;;;;;5011734;28;21068;-68
2023/07/13 00:08:03;;;;;;;3.40;2.30;;;20.90;93.70;;;;;;5010907;28;20894;-68
2023/07/13 00:10:29;;;;;;;2.97;1.73;;;20.80;93.80;;;;;;5027696;28;20487;-68
2023/07/13 00:12:56;;;;;;;3.00;2.80;;;20.70;93.80;;;;;;5029269;28;20485;-68
2023/07/13 00:15:29;;;;;;;2.10;2.00;;;20.60;93.90;;;;;;5026987;28;20572;-68
2023/07/13 00:17:56;;;;;;;3.13;1.80;;;20.50;94.10;;;;;;4991513;28;21166;-68
2023/07/13 00:20:25;;;;;;;2.20;2.00;;;20.40;94.30;;;;;;4992001;28;20450;-67
2023/07/13 00:22:53;;;;;;;2.00;1.90;;;20.30;94.40;;;;;;4991889;28;20833;-68
2023/07/13 00:25:21;;;;;;;2.87;2.60;;;20.30;94.50;;;;;;4995259;28;20474;-67
2023/07/13 00:27:49;;;;;;;2.70;2.50;;;20.20;94.80;;;;;;4995535;28;20556;-67
2023/07/13 00:30:16;;;;;;;3.70;2.40;;;20.10;94.90;;;;;;4995998;28;20451;-68
2023/07/13 00:32:44;;;;;;;2.60;2.03;;;20.00;95.40;;;;;;4995692;28;20542;-66
2023/07/13 00:35:14;;;;;;;2.03;1.83;;;20.00;95.60;;;;;;4995612;28;20490;-67
2023/07/13 00:37:41;;;;;;;5.23;2.20;;;19.90;95.60;;;;;;4995372;28;20447;-67
2023/07/13 00:40:10;;;;;;;2.00;1.90;;;19.80;95.80;;;;;;5028387;28;20477;-68
2023/07/13 00:42:37;;;;;;;2.30;2.17;;;19.70;95.80;;;;;;5035246;28;20503;-67
2023/07/13 00:45:06;;;;;;;2.47;1.67;;;19.60;95.80;;;;;;5034942;28;20835;-67
2023/07/13 00:47:33;;;;;;;2.70;2.50;;;19.50;96.10;;;;;;5034575;28;20972;-68
2023/07/13 00:50:02;;;;;;;2.03;1.70;;;19.40;96.00;;;;;;5034776;28;20451;-68
2023/07/13 00:52:29;;;;;;;2.93;2.60;;;19.40;96.40;;;;;;5034686;28;20445;-67
2023/07/13 00:54:57;;;;;;;2.33;2.13;;;19.30;96.60;;;;;;5034327;28;21013;-67
2023/07/13 00:57:25;;;;;;;3.30;2.10;;;19.20;96.70;;;;;;5034451;28;20445;-67
2023/07/13 01:00:06;;;;;;;3.40;2.40;;;19.10;96.80;;;;;;5034564;28;20459;-67
2023/07/13 01:02:34;;;;;;;2.30;2.10;;;19.10;97.10;;;;;;5034524;28;20453;-67
2023/07/13 01:05:02;;;;;;;2.90;2.70;;;19.00;97.40;;;;;;5034269;28;20473;-67
2023/07/13 01:07:29;;;;;;;2.40;2.30;;;18.90;97.40;;;;;;5034032;28;20452;-68
2023/07/13 01:09:56;;;;;;;2.17;2.07;;;18.80;97.50;;;;;;5034068;28;20531;-67
2023/07/13 01:12:23;;;;;;;2.70;1.90;;;18.70;97.70;;;;;;5034192;28;20445;-68
2023/07/13 01:14:57;;;;;;;5.20;2.40;;;18.70;97.90;;;;;;5033947;28;20476;-67
2023/07/13 01:17:24;;;;;;;4.83;2.20;;;18.60;98.00;;;;;;5034113;28;20809;-66
2023/07/13 01:19:50;;;;;;;2.13;2.00;;;18.50;98.30;;;;;;5034339;28;20451;-67
2023/07/13 01:22:26;;;;;;;2.30;2.10;;;18.50;98.50;;;;;;5034209;28;20445;-67
2023/07/13 01:24:54;;;;;;;2.87;2.40;;;18.40;98.60;;;;;;5034135;28;20834;-68
2023/07/13 01:27:24;;;;;;;2.40;2.30;;;18.40;98.90;;;;;;5033680;28;20450;-67
2023/07/13 01:29:52;;;;;;;1.93;1.83;;;18.30;98.80;;;;;;5031557;28;20456;-67
2023/07/13 01:32:23;;;;;;;1.83;1.70;;;18.30;99.10;;;;;;5034155;28;20440;-67
2023/07/13 01:34:50;;;;;;;2.47;2.37;;;18.30;99.30;;;;;;5033777;28;20526;-67
2023/07/13 01:37:17;;;;;;;2.10;2.00;;;18.20;99.20;;;;;;5033194;28;20484;-67
2023/07/13 01:39:45;;;;;;;2.60;2.40;;;18.10;99.20;;;;;;5033846;28;20452;-67
2023/07/13 01:42:12;;;;;;;2.20;2.10;;;18.10;99.50;;;;;;5033661;28;20451;-67
2023/07/13 01:44:38;;;;;;;2.43;2.13;;;18.10;99.60;;;;;;5033551;28;20575;-67
2023/07/13 01:47:06;;;;;;;1.80;1.70;;;18.00;99.60;;;;;;5033242;28;20930;-67
2023/07/13 01:49:33;;;;;;;2.20;2.10;;;18.00;99.70;;;;;;5033675;28;20456;-67
2023/07/13 01:52:00;;;;;;;2.70;1.90;;;18.00;99.70;;;;;;5033641;28;20463;-67
2023/07/13 01:54:27;;;;;;;2.20;1.93;;;17.90;99.80;;;;;;5033223;28;20473;-67
2023/07/13 01:56:55;;;;;;;3.10;2.73;;;17.90;99.70;;;;;;5033009;28;20494;-67
2023/07/13 01:59:22;;;;;;;6.40;1.93;;;17.90;99.90;;;;;;5033524;28;20822;-67
2023/07/13 02:01:49;;;;;;;2.03;1.93;;;17.80;99.90;;;;;;5033587;28;20453;-67
2023/07/13 02:04:16;;;;;;;2.03;1.90;;;17.80;99.80;;;;;;5032969;28;21226;-66
2023/07/13 02:06:42;;;;;;;1.70;1.60;;;17.70;99.90;;;;;;5033048;28;20483;-66
2023/07/13 02:09:10;;;;;;;2.00;1.90;;;17.70;99.90;;;;;;5032696;28;20459;-67
2023/07/13 02:11:36;;;;;;;3.00;2.60;;;17.60;99.90;;;;;;5033325;28;20535;-67
2023/07/13 02:14:04;;;;;;;2.33;2.13;;;17.60;99.90;;;;;;5032842;28;20479;-67
2023/07/13 02:16:32;;;;;;;3.67;2.37;;;17.60;99.90;;;;;;5032346;28;21084;-67
2023/07/13 02:19:00;;;;;;;5.50;3.77;;;17.50;99.90;;;;;;5032747;28;20452;-66
2023/07/13 02:21:27;;;;;;;2.50;2.30;;;17.40;99.90;;;;;;5032793;28;20448;-67
2023/07/13 02:23:54;;;;;;;2.70;2.50;;;17.40;99.90;;;;;;5033122;28;20472;-67
2023/07/13 02:26:21;;;;;;;2.87;2.67;;;17.30;99.90;;;;;;5032714;28;20838;-67
2023/07/13 02:28:48;;;;;;;1.90;1.80;;;17.30;99.90;;;;;;5033082;28;20819;-67
2023/07/13 02:31:17;;;;;;;2.20;2.10;;;17.20;99.90;;;;;;5032788;28;20555;-67
2023/07/13 02:33:44;;;;;;;2.27;2.17;;;17.20;99.90;;;;;;5032638;28;20842;-67
2023/07/13 02:36:11;;;;;;;2.17;2.07;;;17.20;99.90;;;;;;5032397;28;20500;-66
2023/07/13 02:38:38;;;;;;;2.33;2.20;;;17.10;99.90;;;;;;5032622;28;20455;-66
2023/07/13 02:41:06;;;;;;;1.93;1.83;;;17.10;99.90;;;;;;5032719;28;20474;-67
2023/07/13 02:43:33;;;;;;;2.83;2.57;;;17.00;99.90;;;;;;5032500;28;20490;-67
2023/07/13 02:46:06;;;;;;;2.10;2.00;;;17.00;99.90;;;;;;5032357;28;20792;-67
2023/07/13 02:48:35;;;;;;;2.60;2.40;;;17.00;99.90;;;;;;5031412;28;20484;-67
2023/07/13 02:51:01;;;;;;;2.30;2.20;;;16.90;99.90;;;;;;5032550;28;20462;-67
2023/07/13 02:53:28;;;;;;;2.93;2.30;;;16.80;99.90;;;;;;5032254;28;20472;-66
2023/07/13 02:55:55;;;;;;;2.77;2.57;;;16.90;99.90;;;;;;5031682;28;20590;-67
2023/07/13 02:58:23;;;;;;;2.60;2.40;;;16.80;99.90;;;;;;5032409;28;20456;-67
2023/07/13 03:00:50;;;;;;;3.30;2.20;;;16.80;99.90;;;;;;5032011;28;20970;-67
2023/07/13 03:03:17;;;;;;;2.40;2.20;;;16.70;99.90;;;;;;5032279;28;20456;-67
2023/07/13 03:05:49;;;;;;;3.17;2.97;;;16.70;99.90;;;;;;5032448;28;20450;-67
2023/07/13 03:08:17;;;;;;;2.60;2.40;;;16.70;99.90;;;;;;5032129;28;20542;-66
2023/07/13 03:10:44;;;;;;;2.43;2.30;;;16.60;99.90;;;;;;5031804;28;20808;-67
2023/07/13 03:13:11;;;;;;;2.30;2.20;;;16.60;99.90;;;;;;5030566;28;20463;-66
2023/07/13 03:15:38;;;;;;;2.70;2.50;;;16.60;99.90;;;;;;5031940;28;20982;-67
2023/07/13 03:18:05;;;;;;;2.27;2.00;;;16.50;99.90;;;;;;5031791;28;20451;-67
2023/07/13 03:20:34;;;;;;;3.27;2.87;;;16.50;99.90;;;;;;5032028;28;20479;-67
2023/07/13 03:23:02;;;;;;;2.40;2.20;;;16.40;99.90;;;;;;5032053;28;20459;-66
2023/07/13 03:25:30;;;;;;;2.33;2.07;;;16.40;99.90;;;;;;5031543;28;20462;-66
2023/07/13 03:27:56;;;;;;;2.93;2.00;;;16.40;99.90;;;;;;5031687;28;20447;-67
2023/07/13 03:30:23;;;;;;;3.83;3.37;;;16.40;99.90;;;;;;5031825;28;20491;-67
2023/07/13 03:32:50;;;;;;;2.43;2.33;;;16.30;99.90;;;;;;5031684;28;20843;-67
2023/07/13 03:35:17;;;;;;;2.57;2.30;;;16.30;99.90;;;;;;5031369;28;20503;-67
2023/07/13 03:37:44;;;;;;;2.27;2.00;;;16.30;99.90;;;;;;5031410;28;20858;-67
2023/07/13 03:40:14;;;;;;;2.40;2.00;;;16.20;99.90;;;;;;5031768;28;20454;-67
2023/07/13 03:42:40;;;;;;;4.50;2.37;;;16.20;99.90;;;;;;5031431;28;20462;-67
2023/07/13 03:45:09;;;;;;;2.17;1.97;;;16.20;99.90;;;;;;5031515;28;20478;-66
2023/07/13 03:47:36;;;;;;;2.47;2.27;;;16.10;99.90;;;;;;5031004;28;20452;-66
2023/07/13 03:50:03;;;;;;;3.47;2.27;;;16.20;99.90;;;;;;5031557;28;20907;-66
2023/07/13 03:52:30;;;;;;;2.00;1.90;;;16.10;99.90;;;;;;5031336;28;20448;-66
2023/07/13 03:54:57;;;;;;;2.17;1.97;;;16.10;99.90;;;;;;5031439;28;20520;-67
2023/07/13 03:57:25;;;;;;;3.10;2.50;;;16.10;99.90;;;;;;5030859;28;20492;-66
2023/07/13 03:59:52;;;;;;;2.00;1.90;;;16.10;99.90;;;;;;5031122;28;20840;-66
2023/07/13 04:02:19;;;;;;;3.40;2.60;;;16.10;99.90;;;;;;5012474;28;20559;-67
2023/07/13 04:04:46;;;;;;;2.27;2.13;;;16.10;99.90;;;;;;5011447;28;20464;-66
2023/07/13 04:07:12;;;;;;;2.77;2.20;;;16.10;99.90;;;;;;5011357;28;20463;-66
2023/07/13 04:09:40;;;;;;;2.30;2.10;;;16.10;99.90;;;;;;5011174;28;21152;-66
2023/07/13 04:12:07;;;;;;;2.93;2.40;;;16.10;99.90;;;;;;5011263;28;20986;-67
2023/07/13 04:14:35;;;;;;;2.50;2.30;;;16.10;99.90;;;;;;5011481;28;20857;-68
2023/07/13 04:17:02;;;;;;;2.63;2.40;;;16.10;99.90;;;;;;5010955;28;20947;-68
2023/07/13 04:19:29;;;;;;;2.43;2.27;;;16.10;99.90;;;;;;5011392;28;20453;-68
2023/07/13 04:21:56;;;;;;;2.60;2.40;;;16.10;99.90;;;;;;5011574;28;20539;-68
2023/07/13 04:24:23;;;;;;;2.13;1.97;;;16.10;99.90;;;;;;5011278;28;20561;-69
2023/07/13 04:26:49;;;;;;;2.37;2.17;;;16.10;99.90;;;;;;5011097;28;20474;-68
2023/07/13 04:29:16;;;;;;;4.77;2.97;;;16.10;99.90;;;;;;5011510;28;20533;-69
2023/07/13 04:31:44;;;;;;;3.20;2.53;;;16.10;99.90;;;;;;5010807;28;20944;-69
2023/07/13 04:34:11;;;;;;;2.80;2.50;;;16.20;99.90;;;;;;5010668;28;20555;-68
2023/07/13 04:36:38;;;;;;;2.50;2.20;;;16.20;99.90;;;;;;5011093;28;20583;-69
2023/07/13 04:39:05;;;;;;;2.63;2.53;;;16.20;99.90;;;;;;5011532;28;20543;-69
2023/07/13 04:41:32;;;;;;;2.67;2.47;;;16.20;99.90;;;;;;5011218;28;20992;-68
2023/07/13 04:43:58;;;;;;;2.60;2.40;;;16.30;99.90;;;;;;5010977;28;20519;-69
2023/07/13 04:46:25;;;;;;;2.20;2.00;;;16.40;99.90;;;;;;5010785;28;20523;-69
2023/07/13 04:48:54;;;;;;;2.33;2.23;;;16.40;99.90;;;;;;5011123;28;20961;-69
2023/07/13 04:51:21;;;;;;;3.13;2.67;;;16.50;99.90;;;;;;5010807;28;20462;-68
2023/07/13 04:53:48;;;;;;;2.83;2.63;;;16.60;99.90;;;;;;5010590;28;20568;-68
2023/07/13 04:56:14;;;;;;;3.03;2.20;;;16.60;99.90;;;;;;5010411;28;20985;-69
2023/07/13 04:58:41;;;;;;;3.20;2.40;;;16.70;99.90;;;;;;5010576;28;20453;-68
2023/07/13 05:01:08;;;;;;;4.20;2.70;;;16.80;99.90;;;;;;5011212;28;20456;-69
2023/07/13 05:03:35;;;;;;;2.40;2.10;;;16.80;99.90;;;;;;5010978;28;20473;-69
2023/07/13 05:06:06;;;;;;;3.33;2.40;;;16.80;99.90;;;;;;5010665;28;20539;-69
2023/07/13 05:08:33;;;;;;;3.43;3.23;;;16.90;99.90;;;;;;5010812;28;20456;-69
2023/07/13 05:11:01;;;;;;;3.50;3.20;;;17.00;99.90;;;;;;5011171;28;20450;-69
2023/07/13 05:13:28;;;;;;;3.03;2.30;;;17.00;99.90;;;;;;5014022;28;20480;-67
2023/07/13 05:15:59;;;;;;;4.27;2.77;;;17.10;99.90;;;;;;5014127;28;20463;-67
2023/07/13 05:18:26;;;;;;;2.43;1.97;;;17.20;99.90;;;;;;5013954;28;20496;-67
2023/07/13 05:21:00;;;;;;;3.00;2.30;;;17.30;99.90;;;;;;5008472;28;20448;-67
2023/07/13 05:23:29;;;;;;;3.57;2.30;;;17.30;99.90;;;;;;4996583;28;20508;-67
2023/07/13 05:25:56;;;;;;;2.60;2.40;;;17.40;99.90;;;;;;4996830;28;20482;-67
2023/07/13 05:28:23;;;;;;;2.60;2.40;;;17.50;99.90;;;;;;4993254;28;20532;-67
2023/07/13 05:30:50;;;;;;;3.87;2.90;;;17.60;99.90;;;;;;4993530;28;20540;-67
2023/07/13 05:33:18;;;;;;;3.97;2.77;;;17.60;99.90;;;;;;4994519;28;20544;-67
2023/07/13 05:35:45;;;;;;;2.93;2.07;;;17.70;99.90;;;;;;4994467;28;20964;-67
2023/07/13 05:38:12;;;;;;;3.10;2.00;;;17.90;99.90;;;;;;4994377;28;20577;-67
2023/07/13 05:40:40;;;;;;;2.00;1.80;;;18.00;99.90;;;;;;4994363;28;20980;-67
2023/07/13 05:43:07;;;;;;;3.10;2.10;;;18.20;99.90;;;;;;4994474;28;20842;-67
2023/07/13 05:45:34;;;;;;;1.67;1.60;;;18.40;99.90;;;;;;4994143;28;20553;-67
2023/07/13 05:48:00;;;;;;;2.10;2.00;;;18.50;99.90;;;;;;4992759;28;20488;-67
2023/07/13 05:50:27;;;;;;;4.10;1.90;;;18.70;98.90;;;;;;4993699;28;20455;-67
2023/07/13 05:52:54;;;;;;;2.20;1.70;;;18.80;97.60;;;;;;4994279;28;20453;-68
2023/07/13 05:55:21;;;;;;;1.97;1.63;;;19.00;97.30;;;;;;4993780;28;20498;-67
2023/07/13 05:57:50;;;;;;;2.50;2.30;;;19.20;96.80;;;;;;4993784;28;21031;-67
2023/07/13 06:00:17;;;;;;;3.57;1.80;;;19.30;96.30;;;;;;4999182;28;20446;-67
2023/07/13 06:02:44;;;;;;;4.23;2.30;;;19.40;95.00;;;;;;4993954;28;20554;-67
2023/07/13 06:05:11;;;;;;;1.90;1.70;;;19.50;95.40;;;;;;4993970;28;20482;-67
2023/07/13 06:07:39;;;;;;;2.97;1.60;;;19.40;95.10;;;;;;4993918;28;20451;-67
2023/07/13 06:10:06;;;;;;;4.53;1.70;;;19.30;94.90;;;;;;4994212;28;20446;-67
2023/07/13 06:12:33;;;;;;;1.50;1.30;;;19.30;94.60;;;;;;4993713;28;20496;-67
2023/07/13 06:15:02;;;;;;;1.77;1.67;;;19.30;94.50;;;;;;4993748;28;20466;-67
2023/07/13 06:17:29;;;;;;;2.80;1.17;;;19.20;94.90;;;;;;4993353;28;20505;-67
2023/07/13 06:19:56;;;;;;;4.40;1.87;;;19.20;95.30;;;;;;4993938;28;20465;-68
2023/07/13 06:22:23;;;;;;;1.60;1.50;;;19.20;94.70;;;;;;4993411;28;20465;-67
2023/07/13 06:24:50;;;;;;;4.00;1.90;;;19.30;93.60;;;;;;4993533;28;20470;-67
2023/07/13 06:27:16;;;;;;;1.63;1.47;;;19.30;93.80;;;;;;4993532;28;20508;-67
2023/07/13 06:29:44;;;;;;;2.73;1.47;;;19.50;94.00;;;;;;4993580;28;20446;-67
2023/07/13 06:32:13;;;;;;;2.47;1.97;;;19.60;93.50;;;;;;4993682;28;20454;-67
2023/07/13 06:34:39;;;;;;;1.47;1.37;;;19.70;93.70;;;;;;4993633;28;20846;-67
2023/07/13 06:37:07;;;;;;;3.00;1.50;;;19.80;93.40;;;;;;4992739;28;20515;-68
2023/07/13 06:39:34;;;;;;;1.93;1.30;;;20.00;93.00;;;;;;4992783;28;20550;-67
2023/07/13 06:42:00;;;;;;;1.13;1.10;;;20.20;93.30;;;;;;4992308;28;20558;-68
2023/07/13 06:44:27;;;;;;;1.97;1.40;;;20.30;92.60;;;;;;4993031;28;20574;-67
2023/07/13 06:46:54;;;;;;;3.90;1.70;;;20.50;93.10;;;;;;4993340;28;20452;-68
2023/07/13 06:49:22;;;;;;;2.83;1.97;;;20.70;92.20;;;;;;4992508;28;20467;-68
2023/07/13 06:51:49;;;;;;;1.53;1.43;;;20.80;91.60;;;;;;4993251;28;20471;-67
2023/07/13 06:54:16;;;;;;;1.60;1.30;;;21.00;91.00;;;;;;4992821;28;21001;-67
2023/07/13 06:56:43;;;;;;;2.53;1.20;;;21.10;89.70;;;;;;4992618;28;20488;-68
2023/07/13 06:59:09;;;;;;;3.00;1.67;;;21.20;90.00;;;;;;4992969;28;20448;-66
2023/07/13 07:01:36;;;;;;;3.03;1.43;;;21.30;89.60;;;;;;4993197;28;20448;-68
2023/07/13 07:04:04;;;;;;;2.83;1.33;;;21.50;90.00;;;;;;4992960;28;20477;-68
2023/07/13 07:06:32;;;;;;;2.20;1.40;;;21.60;87.30;;;;;;4992658;28;20458;-68
2023/07/13 07:08:59;;;;;;;3.37;2.03;;;21.70;87.40;;;;;;4992806;28;20445;-68
2023/07/13 07:11:26;;;;;;;1.80;1.07;;;21.80;86.80;;;;;;4992870;28;20543;-67
2023/07/13 07:13:53;;;;;;;1.50;1.33;;;22.00;87.00;;;;;;4992326;28;20558;-68
2023/07/13 07:16:20;;;;;;;2.97;1.30;;;22.20;84.50;;;;;;4992613;28;21010;-68
2023/07/13 07:18:47;;;;;;;4.13;1.93;;;22.30;82.40;;;;;;5007229;28;20486;-68
2023/07/13 07:21:14;;;;;;;1.50;1.40;;;22.20;81.60;;;;;;5011709;28;20947;-67
2023/07/13 07:23:42;;;;;;;3.13;1.30;;;22.20;82.30;;;;;;5011427;28;20482;-68
2023/07/13 07:26:10;;;;;;;2.33;1.60;;;22.20;82.70;;;;;;5011521;28;20497;-67
2023/07/13 07:28:36;;;;;;;5.10;1.60;;;22.30;83.30;;;;;;5012243;28;20506;-68
2023/07/13 07:31:03;;;;;;;3.13;1.57;;;22.30;80.50;;;;;;5012129;28;20463;-69
2023/07/13 07:33:30;;;;;;;2.50;1.40;;;22.40;82.10;;;;;;5011549;28;20476;-68
2023/07/13 07:35:57;;;;;;;2.77;1.80;;;22.60;81.30;;;;;;5010912;28;20527;-68
2023/07/13 07:38:24;;;;;;;3.90;1.70;;;22.70;79.40;;;;;;5012093;28;20496;-68
2023/07/13 07:40:52;;;;;;;1.70;1.60;;;22.70;78.30;;;;;;5011954;28;20494;-67
2023/07/13 07:43:19;;;;;;;2.40;1.80;;;22.70;78.00;;;;;;5011572;28;20466;-68
2023/07/13 07:45:46;;;;;;;1.47;1.27;;;22.70;78.30;;;;;;5011692;28;20557;-68
2023/07/13 07:48:12;;;;;;;1.10;1.10;;;22.80;78.90;;;;;;5011688;28;20448;-68
2023/07/13 07:50:39;;;;;;;1.27;1.00;;;23.00;75.30;;;;;;5011591;28;20990;-69
2023/07/13 07:53:07;;;;;;;1.10;1.10;;;23.10;74.90;;;;;;5011112;28;20450;-68
2023/07/13 07:55:34;;;;;;;1.33;1.20;;;23.20;75.80;;;;;;5011164;28;21038;-69
2023/07/13 07:58:02;;;;;;;3.00;1.50;;;23.40;73.80;;;;;;5011227;28;20514;-68
2023/07/13 08:00:30;;;;;;;1.43;1.07;;;23.60;75.40;;;;;;5011449;28;20450;-68
2023/07/13 08:02:57;;;;;;;1.53;1.20;;;23.70;74.70;;;;;;5011825;28;20462;-68
2023/07/13 08:05:24;;;;;;;1.43;1.00;;;23.90;75.00;;;;;;5011763;28;20544;-68
2023/07/13 08:07:51;;;;;;;1.50;1.40;;;24.00;72.30;;;;;;5011335;28;20541;-68
2023/07/13 08:10:18;;;;;;;1.93;1.37;;;24.10;74.00;;;;;;5011500;28;20497;-68
2023/07/13 08:12:45;;;;;;;1.40;1.30;;;24.20;72.00;;;;;;5011279;28;20451;-68
2023/07/13 08:15:14;;;;;;;1.53;1.20;;;24.30;71.10;;;;;;5008873;28;20482;-67
2023/07/13 08:17:41;;;;;;;3.70;1.30;;;24.50;72.00;;;;;;5010659;28;20490;-66
2023/07/13 08:20:09;;;;;;;3.80;1.60;;;24.60;69.10;;;;;;5011160;28;20542;-68
2023/07/13 08:22:36;;;;;;;1.87;1.77;;;24.70;70.40;;;;;;5010176;28;20694;-68
2023/07/13 08:25:03;;;;;;;2.07;1.60;;;24.90;71.90;;;;;;5011205;28;20558;-68
2023/07/13 08:27:30;;;;;;;1.80;1.13;;;25.00;68.50;;;;;;5004539;28;20468;-68
2023/07/13 08:29:57;;;;;;;2.07;1.30;;;25.10;68.50;;;;;;5010136;28;20568;-68
2023/07/13 08:32:25;;;;;;;4.70;2.10;;;25.20;66.80;;;;;;5004421;28;20454;-69
2023/07/13 08:34:52;;;;;;;1.80;1.20;;;25.30;66.30;;;;;;4999961;28;20497;-68
2023/07/13 08:37:19;;;;;;;2.40;1.37;;;25.30;64.80;;;;;;4997524;28;20457;-69
2023/07/13 08:39:47;;;;;;;1.80;1.70;;;25.20;63.50;;;;;;5009867;28;20464;-69
2023/07/13 08:42:17;;;;;;;1.77;1.60;;;25.20;65.40;;;;;;5004419;28;20464;-68
2023/07/13 08:44:53;;;;;;;3.77;1.43;;;25.30;64.20;;;;;;5010265;28;20485;-68
2023/07/13 08:47:20;;;;;;;4.17;1.60;;;25.30;66.20;;;;;;5012584;28;20970;-69
2023/07/13 08:49:48;;;;;;;3.00;1.70;;;25.30;63.70;;;;;;5013977;28;20507;-66
2023/07/13 08:52:17;;;;;;;1.83;1.63;;;25.20;63.80;;;;;;5003643;28;20461;-68
2023/07/13 08:54:45;;;;;;;4.63;1.70;;;25.20;62.60;;;;;;5011764;28;20590;-68
2023/07/13 08:57:14;;;;;;;1.67;1.57;;;25.20;63.50;;;;;;5012992;28;20461;-68
2023/07/13 08:59:41;;;;;;;2.93;2.00;;;25.20;64.90;;;;;;5012970;28;20451;-68
2023/07/13 09:02:27;;;;;;;1.40;1.30;;;25.20;62.10;;;;;;5013773;28;20885;-66
2023/07/13 09:04:57;;;;;;;2.70;1.50;;;25.30;64.40;;;;;;5003431;28;20484;-69
2023/07/13 09:07:30;;;;;;;1.63;1.53;;;25.40;63.90;;;;;;5009885;28;20484;-68
2023/07/13 09:10:05;;;;;;;2.50;1.40;;;25.50;64.00;;;;;;5000094;28;20985;-68
2023/07/13 09:12:36;;;;;;;1.60;1.50;;;25.70;63.30;;;;;;5014076;28;20460;-68
2023/07/13 09:15:05;;;;;;;3.50;1.80;;;25.90;62.30;;;;;;5012370;28;20481;-69
2023/07/13 09:17:34;;;;;;;3.03;1.70;;;25.90;61.40;;;;;;5001469;28;20442;-69
2023/07/13 09:20:04;;;;;;;2.40;1.73;;;25.90;61.90;;;;;;4999760;28;20542;-68
2023/07/13 09:22:33;;;;;;;3.27;1.73;;;26.10;61.40;;;;;;5013338;28;20449;-68
2023/07/13 09:25:03;;;;;;;3.27;1.50;;;26.20;61.60;;;;;;5012165;28;20484;-68
2023/07/13 09:27:37;;;;;;;2.23;1.77;;;26.40;60.00;;;;;;5012921;28;20542;-67
2023/07/13 09:30:28;;;;;;;1.70;1.57;;;26.50;61.40;;;;;;5013756;28;20550;-68
2023/07/13 09:32:55;;;;;;;1.50;1.40;;;26.60;59.60;;;;;;5013727;28;20453;-68
2023/07/13 09:35:27;;;;;;;3.67;1.37;;;26.70;59.30;;;;;;5013181;28;20481;-68
2023/07/13 09:37:58;;;;;;;3.53;2.10;;;26.80;58.60;;;;;;5012845;28;20573;-68
2023/07/13 09:40:26;;;;;;;5.00;1.30;;;27.00;59.00;;;;;;5013584;28;20458;-68
2023/07/13 09:42:53;;;;;;;1.67;1.57;;;26.90;58.10;;;;;;5013594;28;20456;-66
2023/07/13 09:45:28;;;;;;;2.27;1.60;;;26.70;57.20;;;;;;5013370;28;20477;-68
2023/07/13 09:47:59;;;;;;;4.20;1.37;;;26.40;57.40;;;;;;5013053;28;20835;-68
2023/07/13 09:50:28;;;;;;;1.63;1.53;;;26.30;57.20;;;;;;5013331;28;20541;-67
2023/07/13 09:52:58;;;;;;;1.37;1.27;;;26.20;57.80;;;;;;5013576;28;20864;-67
2023/07/13 09:55:26;;;;;;;3.30;1.53;;;25.90;57.00;;;;;;5013319;28;20473;-67
2023/07/13 09:57:53;;;;;;;1.83;1.50;;;25.70;58.30;;;;;;5012282;28;20549;-66
2023/07/13 10:00:22;;;;;;;4.23;1.93;;;25.50;58.30;;;;;;5013303;28;21033;-68
2023/07/13 10:02:58;;;;;;;1.60;1.50;;;25.40;59.20;;;;;;5013133;28;20452;-67
2023/07/13 10:05:25;;;;;;;2.83;1.60;;;25.40;58.90;;;;;;5013015;28;20473;-67
2023/07/13 10:07:54;;;;;;;3.20;1.77;;;25.50;59.20;;;;;;5012937;28;20487;-67
2023/07/13 10:10:22;;;;;;;1.70;1.60;;;25.50;58.90;;;;;;5012586;28;21023;-67
2023/07/13 10:12:50;;;;;;;2.23;2.10;;;25.50;58.90;;;;;;5012782;28;20455;-67
2023/07/13 10:15:18;;;;;;;3.80;2.20;;;25.60;59.20;;;;;;5012839;28;20478;-67
2023/07/13 10:17:45;;;;;;;3.87;3.30;;;25.70;59.40;;;;;;5012410;28;20453;-67
2023/07/13 10:20:12;;;;;;;2.33;2.17;;;25.80;59.70;;;;;;5012534;28;20540;-67
2023/07/13 10:22:43;;;;;;;2.30;2.10;;;25.90;59.10;;;;;;5012812;28;20499;-65
2023/07/13 10:25:23;;;;;;;2.03;1.60;;;25.90;58.50;;;;;;5011983;28;20480;-66
2023/07/13 10:27:51;;;;;;;2.53;1.90;;;26.00;58.50;;;;;;5012342;28;20794;-67
2023/07/13 10:30:20;;;;;;;1.90;1.80;;;25.90;58.40;;;;;;5012691;28;20460;-67
2023/07/13 10:32:47;;;;;;;1.80;1.67;;;25.90;59.90;;;;;;5012561;28;20461;-67
2023/07/13 10:35:15;;;;;;;2.73;1.80;;;25.90;58.40;;;;;;5012234;28;20838;-66
2023/07/13 10:37:45;;;;;;;3.27;1.90;;;25.80;59.10;;;;;;5012211;28;20456;-68
2023/07/13 10:40:14;;;;;;;2.10;2.00;;;25.90;57.50;;;;;;5012237;28;20452;-68
2023/07/13 10:42:50;;;;;;;1.97;1.50;;;25.90;58.50;;;;;;5012154;28;20449;-67
2023/07/13 10:45:17;;;;;;;1.93;1.73;;;26.10;58.80;;;;;;4992959;28;20560;-68
2023/07/13 10:47:44;;;;;;;2.50;1.80;;;26.10;58.50;;;;;;4992457;28;20534;-66
2023/07/13 10:50:16;;;;;;;2.50;1.20;;;26.10;57.50;;;;;;4992820;28;20481;-67
2023/07/13 10:52:46;;;;;;;2.50;1.20;;;26.00;56.20;;;;;;4992853;28;20450;-67
2023/07/13 10:55:32;;;;;;;2.63;1.70;;;25.70;56.00;;;;;;4991747;28;20474;-66
2023/07/13 10:58:02;;;;;;;2.27;1.53;;;25.70;57.10;;;;;;4992114;28;20511;-68
2023/07/13 11:00:32;;;;;;;2.37;1.70;;;25.50;56.40;;;;;;4992224;28;20459;-67
2023/07/13 11:03:00;;;;;;;1.97;1.87;;;25.40;57.50;;;;;;4992373;28;20452;-67
2023/07/13 11:05:30;;;;;;;2.10;1.67;;;25.50;57.10;;;;;;4991988;28;20477;-67
2023/07/13 11:08:03;;;;;;;5.70;1.60;;;25.40;56.90;;;;;;4991691;28;20460;-67
2023/07/13 11:10:52;;;;;;;1.63;1.53;;;25.40;57.80;;;;;;4992131;28;20457;-67
2023/07/13 11:13:57;;;;;;;5.30;1.83;;;25.50;56.90;;;;;;4993362;28;20539;-67
2023/07/13 11:16:46;;;;;;;2.73;1.57;;;25.60;57.10;;;;;;5011494;28;20941;-67
2023/07/13 11:19:40;;;;;;;1.87;1.60;;;25.70;57.20;;;;;;5010614;28;20618;-67
2023/07/13 11:22:26;;;;;;;4.07;1.90;;;25.70;56.50;;;;;;5011622;28;20471;-67
2023/07/13 11:24:59;;;;;;;3.30;1.70;;;25.60;56.00;;;;;;5011732;28;20473;-67
2023/07/13 11:27:38;;;;;;;2.97;1.17;;;25.50;56.80;;;;;;5011180;28;20486;-67
2023/07/13 11:30:19;;;;;;;4.87;2.03;;;25.40;56.10;;;;;;5011745;28;20454;-68
2023/07/13 11:32:46;;;;;;;2.40;1.53;;;25.60;58.30;;;;;;5007891;28;20493;-67
2023/07/13 11:35:14;;;;;;;1.60;1.50;;;25.90;58.30;;;;;;5001778;28;21043;-68
2023/07/13 11:37:41;;;;;;;2.13;1.80;;;26.20;57.50;;;;;;5001260;28;20447;-67
2023/07/13 11:40:14;;;;;;;2.60;1.30;;;26.40;56.90;;;;;;5007308;28;20565;-68
2023/07/13 11:42:40;;;;;;;4.30;1.90;;;26.60;56.50;;;;;;5011364;28;20453;-68
2023/07/13 11:45:19;;;;;;;2.00;1.70;;;26.90;56.20;;;;;;5011192;28;20481;-68
2023/07/13 11:47:46;;;;;;;2.53;1.37;;;27.00;54.90;;;;;;5010900;28;20451;-68
2023/07/13 11:50:19;;;;;;;1.93;1.70;;;27.20;55.40;;;;;;5011151;28;20449;-67
2023/07/13 11:52:46;;;;;;;2.70;1.67;;;27.30;53.40;;;;;;5011289;28;20534;-66
2023/07/13 11:55:15;;;;;;;3.10;1.73;;;27.40;54.40;;;;;;5011057;28;20506;-68
2023/07/13 11:57:45;;;;;;;2.50;1.90;;;27.40;54.30;;;;;;5011100;28;20463;-67
2023/07/13 12:00:16;;;;;;;2.03;1.83;;;27.50;53.60;;;;;;5011162;28;20519;-67
2023/07/13 12:02:44;;;;;;;1.60;1.50;;;27.50;53.90;;;;;;5010969;28;20545;-68
2023/07/13 12:05:12;;;;;;;1.67;1.20;;;27.30;53.10;;;;;;5011011;28;20846;-67
2023/07/13 12:07:39;;;;;;;2.27;1.40;;;27.20;52.40;;;;;;5010742;28;20451;-67
2023/07/13 12:10:18;;;;;;;3.73;1.40;;;27.00;51.70;;;;;;5010829;28;20825;-67
2023/07/13 12:12:48;;;;;;;2.63;1.87;;;26.90;53.40;;;;;;5011178;28;20463;-67
2023/07/13 12:15:16;;;;;;;2.30;1.57;;;27.00;53.60;;;;;;5009978;28;20477;-65
2023/07/13 12:17:43;;;;;;;2.20;1.80;;;27.10;53.00;;;;;;5010728;28;20465;-68
2023/07/13 12:20:18;;;;;;;3.53;1.30;;;27.30;53.90;;;;;;5012059;28;20852;-67
2023/07/13 12:22:47;;;;;;;1.93;1.73;;;27.50;53.50;;;;;;5015048;28;20455;-67
2023/07/13 12:25:14;;;;;;;3.87;1.37;;;27.60;52.70;;;;;;5014714;28;20467;-67
2023/07/13 12:27:40;;;;;;;2.60;1.37;;;27.80;52.30;;;;;;5014498;28;20640;-68
2023/07/13 12:30:30;;;;;;;3.80;1.70;;;27.90;52.30;;;;;;5011625;28;20497;-67
2023/07/13 12:32:59;;;;;;;1.73;1.57;;;27.80;51.60;;;;;;5006717;28;20452;-67
2023/07/13 12:35:26;;;;;;;1.47;1.37;;;27.80;51.40;;;;;;5014143;28;20574;-67
2023/07/13 12:37:52;;;;;;;2.70;1.60;;;27.70;52.50;;;;;;5013893;28;20446;-65
2023/07/13 12:40:22;;;;;;;2.50;1.70;;;27.70;53.50;;;;;;5013958;28;21033;-66
2023/07/13 12:42:49;;;;;;;2.03;1.20;;;27.90;51.20;;;;;;5013746;28;20443;-67
2023/07/13 12:45:19;;;;;;;2.40;1.27;;;27.90;51.60;;;;;;5014094;28;20560;-68
2023/07/13 12:47:49;;;;;;;2.63;1.80;;;28.00;52.10;;;;;;5013566;28;20452;-69
2023/07/13 12:50:16;;;;;;;2.57;1.43;;;27.90;50.40;;;;;;5013748;28;20947;-67
2023/07/13 12:52:44;;;;;;;5.17;2.00;;;27.80;52.00;;;;;;5013467;28;21018;-65
2023/07/13 12:55:15;;;;;;;2.13;1.70;;;27.80;52.40;;;;;;5013279;28;20468;-67